Latest Weather Observations for Narrandera Airport

IDN60801

Issued at 8:02 pm EST Friday 4 September 2015 (issued every 30 minutes, with the page automatically refreshed every 10 minutes)

About weather observations | Map of weather stations | Latest weather observations for NSW | Other Formats
Station Details ID: 074148 Name: NARRANDERA AIRPORT AWS Lat: -34.70 Lon: 146.51 Height: 145.0 m
Data from the previous 72 hours. | See also: Recent months at Narrandera Airport
Date/Time
EST
Temp
°C
App
Temp
°C
Dew
Point
Rel
Hum
%
Delta-T
°C
Wind Press
QNH
hPa
Press
MSL
hPa
Rain
since 9 am
mm
Dir
 
Spd
km/h
Gust
km/h
Spd
kts
Gust
kts
04/08:00pm 9.3 7.6 5.7 78 1.6 W 4 7 2 4 1023.4 1023.4 0.0
04/07:30pm 10.3 7.7 6.1 75 2.0 WSW 9 11 5 6 1023.1 1023.1 0.0
04/07:00pm 10.6 8.6 6.9 78 1.8 W 7 9 4 5 1023.0 1023.0 0.0
04/06:30pm 11.4 9.3 6.7 73 2.2 W 7 9 4 5 1022.8 1022.8 0.0
04/06:00pm 12.5 10.6 6.8 68 2.7 W 6 7 3 4 1022.5 1022.5 0.0
04/05:30pm 13.9 12.0 6.7 62 3.5 SW 6 9 3 5 1022.1 1022.1 0.0
04/05:00pm 14.4 11.7 7.2 62 3.5 SW 11 15 6 8 1021.9 1021.9 0.0
04/04:30pm 15.0 12.5 8.3 64 3.4 WSW 11 17 6 9 1021.8 1021.8 0.0
04/04:00pm 15.0 11.8 6.8 58 4.0 W 13 19 7 10 1021.9 1021.9 0.0
04/03:30pm 15.0 11.9 7.3 60 3.8 SW 13 20 7 11 1021.9 1021.9 0.0
04/03:00pm 15.7 12.6 8.7 63 3.6 W 15 20 8 11 1021.9 1021.9 0.0
04/02:30pm 15.2 12.0 8.4 64 3.5 WSW 15 20 8 11 1022.0 1022.0 0.0
04/02:00pm 14.8 11.4 7.8 63 3.5 W 15 20 8 11 1022.3 1022.3 0.0
04/01:30pm 14.9 12.2 9.1 68 3.0 WSW 13 20 7 11 1022.5 1022.5 0.0
04/01:00pm 14.2 10.9 8.2 67 3.0 WSW 15 20 8 11 1022.8 1022.8 0.0
04/12:30pm 13.8 11.0 8.6 71 2.6 SW 13 20 7 11 1023.1 1023.1 0.0
04/12:00pm 13.7 10.7 7.7 67 3.0 WSW 13 19 7 10 1023.5 1023.5 0.0
04/11:30am 13.3 10.2 7.1 66 3.0 WNW 13 20 7 11 1023.7 1023.7 0.0
04/11:00am 13.0 10.5 8.3 73 2.3 NW 11 19 6 10 1023.8 1023.8 0.0
04/10:30am 12.1 9.8 7.6 74 2.2 NNW 9 13 5 7 1023.9 1023.9 0.0
04/10:00am 11.0 9.1 6.9 76 2.0 NW 6 11 3 6 1024.0 1024.0 0.0
04/09:30am 9.8 8.1 5.8 76 1.8 WNW 4 9 2 5 1024.0 1024.0 0.0
04/09:00am 8.9 6.7 6.0 82 1.3 WSW 7 13 4 7 1024.1 1024.1 2.4
04/08:30am 7.9 5.1 5.2 83 1.2 WSW 9 13 5 7 1023.9 1023.9 2.4
04/08:00am 7.0 4.9 5.6 91 0.6 W 6 9 3 5 1023.8 1023.8 2.4
04/07:30am 5.8 3.5 5.7 99 0.0 NW 7 11 4 6 1023.3 1023.3 2.4
04/07:00am 4.5 2.5 4.2 98 0.1 NW 4 7 2 4 1023.0 1023.0 2.4
04/06:30am 4.2 2.8 3.6 96 0.3 CALM 0 0 0 0 1022.5 1022.5 2.4
04/06:00am 4.7 3.4 4.0 95 0.3 CALM 0 0 0 0 1022.3 1022.3 2.4
04/05:30am 5.1 3.8 4.2 94 0.4 CALM 0 0 0 0 1022.2 1022.2 2.4
04/05:00am 5.6 4.0 4.7 94 0.4 WSW 2 6 1 3 1021.9 1021.9 2.4
04/04:30am 5.8 3.5 4.9 94 0.4 WSW 6 9 3 5 1021.7 1021.7 2.4
04/04:00am 6.1 3.9 5.5 96 0.3 WSW 6 9 3 5 1021.4 1021.4 2.4
04/03:30am 6.3 4.2 5.7 96 0.3 SW 6 11 3 6 1021.2 1021.2 2.2
04/03:00am 6.5 5.2 5.8 95 0.3 W 2 6 1 3 1021.0 1021.0 2.2
04/02:30am 6.8 5.9 6.1 95 0.3 CALM 0 0 0 0 1020.9 1020.9 2.2
04/02:00am 7.2 6.3 6.1 93 0.5 CALM 0 0 0 0 1021.0 1021.0 2.2
04/01:30am 7.7 5.6 6.5 92 0.6 SSW 7 13 4 7 1021.0 1021.0 2.2
04/01:00am 8.0 5.6 6.9 93 0.5 SW 9 11 5 6 1020.8 1020.8 2.2
04/12:30am 8.7 6.9 7.2 90 0.7 SW 6 11 3 6 1020.7 1020.7 2.2
04/12:00am 9.0 6.3 7.5 90 0.7 SW 11 17 6 9 1020.3 1020.3 2.2
 
Date/Time
EST
Temp
°C
App
Temp
°C
Dew
Point
Rel
Hum
%
Delta-T
°C
Wind Press
QNH
hPa
Press
MSL
hPa
Rain
since 9 am
mm
Dir
 
Spd
km/h
Gust
km/h
Spd
kts
Gust
kts
03/11:30pm 9.5 6.5 7.6 88 0.9 SSW 13 17 7 9 1020.1 1020.1 2.2
03/11:00pm 9.9 5.8 7.7 86 1.1 SW 19 24 10 13 1019.9 1019.9 2.2
03/10:30pm 10.5 6.7 7.7 83 1.4 SW 17 24 9 13 1019.8 1019.8 2.2
03/10:00pm 10.8 7.4 7.7 81 1.5 SW 15 19 8 10 1019.6 1019.6 2.2
03/09:30pm 11.4 8.4 7.9 79 1.7 SW 13 20 7 11 1019.1 1019.2 2.2
03/09:00pm 11.4 8.4 7.7 78 1.8 SW 13 19 7 10 1018.4 1018.4 2.2
03/08:30pm 12.0 9.4 7.9 76 2.0 SW 11 20 6 11 1018.1 1018.1 2.2
03/08:00pm 12.3 9.3 7.8 74 2.2 SW 13 20 7 11 1017.9 1017.9 2.2
03/07:30pm 12.8 9.9 8.1 73 2.3 SW 13 19 7 10 1017.4 1017.4 2.2
03/07:00pm 12.8 11.1 8.3 74 2.2 W 7 11 4 6 1017.1 1017.1 2.2
03/06:30pm 12.0 10.4 8.7 80 1.7 W 7 9 4 5 1016.5 1016.5 2.2
03/06:00pm 13.4 11.9 8.3 71 2.6 W 6 9 3 5 1015.9 1015.9 2.2
03/05:30pm 15.1 12.7 8.6 65 3.3 SW 11 15 6 8 1015.1 1015.1 2.2
03/05:00pm 15.5 11.8 8.0 61 3.8 SW 17 22 9 12 1014.6 1014.6 2.2
03/04:30pm 15.8 12.2 8.5 62 3.7 SW 17 30 9 16 1014.1 1014.1 2.2
03/04:00pm 15.7 11.3 8.9 64 3.5 SW 22 30 12 16 1013.8 1013.8 2.2
03/03:30pm 15.2 11.2 8.9 66 3.2 SW 20 28 11 15 1013.6 1013.6 2.2
03/03:00pm 15.3 11.7 9.7 69 2.9 SW 19 30 10 16 1013.1 1013.0 2.2
03/02:30pm 15.0 11.5 10.2 73 2.5 SW 19 26 10 14 1012.6 1012.5 2.2
03/02:00pm 14.3 10.8 8.9 70 2.8 SW 17 26 9 14 1012.0 1012.0 2.2
03/01:30pm 13.9 10.6 9.7 76 2.2 SSW 17 26 9 14 1011.8 1011.8 2.2
03/01:00pm 13.3 9.8 10.3 82 1.6 SSW 19 26 10 14 1011.9 1011.9 2.2
03/12:30pm 12.2 10.0 10.8 91 0.7 S 13 19 7 10 1011.8 1011.8 2.2
03/12:00pm 11.3 9.2 11.1 99 0.1 SSW 13 22 7 12 1011.4 1011.4 2.2
03/11:30am 10.9 8.7 10.7 99 0.1 W 13 19 7 10 1011.3 1011.3 1.2
03/11:00am 10.4 8.0 10.2 99 0.1 W 13 17 7 9 1011.0 1011.0 0.4
03/10:30am 10.3 7.5 10.1 99 0.1 W 15 20 8 11 1010.7 1010.7 0.2
03/10:00am 10.4 7.6 10.1 98 0.2 W 15 20 8 11 1010.3 1010.3 0.2
03/09:30am 10.3 7.5 10.0 98 0.2 W 15 20 8 11 1009.9 1009.9 0.0
03/09:00am 10.3 7.5 10.0 98 0.2 WNW 15 20 8 11 1009.6 1009.6 22.0
03/08:30am 9.9 7.4 9.8 99 0.1 W 13 15 7 8 1009.1 1009.1 22.0
03/08:00am 9.5 6.9 9.4 99 0.1 WNW 13 17 7 9 1008.8 1008.8 22.0
03/07:30am 9.5 6.9 9.5 100 0.0 NW 13 17 7 9 1008.2 1008.2 22.0
03/07:00am 9.3 7.1 9.2 99 0.0 NW 11 15 6 8 1007.7 1007.7 22.0
03/06:30am 9.3 7.4 9.2 99 0.0 W 9 13 5 7 1007.3 1007.2 22.0
03/06:00am 9.3 7.1 9.2 99 0.0 W 11 15 6 8 1006.8 1006.7 22.0
03/05:30am 9.3 7.4 9.2 99 0.0 WNW 9 13 5 7 1006.4 1006.3 22.0
03/05:00am 9.3 7.1 9.2 99 0.0 W 11 17 6 9 1005.9 1005.8 22.0
03/04:30am 9.4 6.8 9.3 99 0.0 WNW 13 20 7 11 1005.7 1005.6 22.0
03/04:00am 9.5 6.5 9.4 99 0.1 WNW 15 22 8 12 1005.5 1005.4 22.0
03/03:30am 9.7 6.0 9.4 98 0.2 WNW 19 28 10 15 1005.5 1005.4 22.0
03/03:00am 9.8 6.2 9.7 99 0.1 WNW 19 22 10 12 1005.7 1005.6 22.0
03/02:30am 9.1 6.8 9.0 99 0.0 NW 11 15 6 8 1005.9 1005.8 22.0
03/02:00am 8.9 6.2 8.8 99 0.0 NW 13 13 7 7 1006.0 1005.9 22.0
03/01:30am 9.6 7.4 9.5 99 0.1 NNW 11 15 6 8 1006.0 1005.9 22.0
03/01:00am 10.2 9.1 10.0 99 0.1 NW 6 9 3 5 1006.1 1006.0 21.8
03/12:30am 10.5 9.9 10.5 100 0.0 W 4 7 2 4 1006.1 1006.0 21.8
03/12:00am 10.5 9.5 10.3 99 0.1 WNW 6 9 3 5 1005.9 1005.8 21.8
 
Date/Time
EST
Temp
°C
App
Temp
°C
Dew
Point
Rel
Hum
%
Delta-T
°C
Wind Press
QNH
hPa
Press
MSL
hPa
Rain
since 9 am
mm
Dir
 
Spd
km/h
Gust
km/h
Spd
kts
Gust
kts
02/11:30pm 10.5 10.3 10.3 99 0.1 SSW 2 7 1 4 1005.7 1005.6 21.8
02/11:00pm 10.9 10.0 10.7 99 0.1 ENE 6 15 3 8 1006.0 1005.9 21.8
02/10:30pm 11.0 9.2 10.8 99 0.1 E 11 17 6 9 1006.4 1006.3 21.8
02/10:00pm 10.9 8.3 10.7 99 0.1 SE 15 20 8 11 1006.1 1006.0 21.8
02/09:30pm 11.5 8.3 11.3 99 0.1 WNW 19 32 10 17 1008.0 1008.0 19.8
02/09:00pm 12.0 12.6 11.8 99 0.1 CALM 0 0 0 0 1007.8 1007.8 10.6
02/08:30pm 12.1 11.9 11.9 99 0.1 SW 4 9 2 5 1008.0 1008.0 8.0
02/08:00pm 12.1 11.3 11.6 97 0.3 SSW 7 11 4 6 1008.1 1008.1 6.0
02/07:30pm 12.6 10.5 11.3 92 0.7 WNW 13 17 7 9 1008.5 1008.5 3.4
02/07:00pm 13.0 11.6 10.9 87 1.1 E 9 13 5 7 1006.6 1006.5 2.2
02/06:30pm 12.9 11.5 11.0 88 1.0 NE 9 13 5 7 1006.8 1006.7 2.2
02/06:00pm 13.3 11.0 10.5 83 1.5 E 13 17 7 9 1006.8 1006.7 2.2
02/05:30pm 14.6 12.2 10.2 75 2.3 ENE 13 17 7 9 1007.3 1007.2 0.2
02/05:00pm 15.4 14.3 10.0 70 2.8 N 6 9 3 5 1007.6 1007.6 0.0
02/04:30pm 16.0 13.2 9.9 67 3.2 ENE 15 19 8 10 1006.8 1006.7 0.0
02/04:00pm 16.4 14.4 10.3 67 3.3 NNE 11 17 6 9 1007.2 1007.1 0.0
02/03:30pm 17.3 13.0 9.5 60 4.1 ENE 22 32 12 17 1007.2 1007.1 0.0
02/03:00pm 17.7 13.6 8.8 56 4.6 NE 20 28 11 15 1007.6 1007.6 0.0
02/02:30pm 18.0 12.7 8.3 53 5.0 NE 26 33 14 18 1008.3 1008.3 0.0
02/02:00pm 19.2 14.0 8.8 51 5.5 NE 26 37 14 20 1008.6 1008.6 0.0
02/01:30pm 18.6 13.1 7.4 48 5.7 NE 26 39 14 21 1009.5 1009.5 0.0
02/01:00pm 19.2 14.1 9.1 52 5.3 NE 26 41 14 22 1010.2 1010.2 0.0
02/12:30pm 17.6 12.6 8.2 54 4.8 ENE 24 33 13 18 1010.7 1010.7 0.0
02/12:00pm 17.6 12.4 7.4 51 5.2 NE 24 32 13 17 1011.8 1011.8 0.0
02/11:30am 17.3 12.6 7.9 54 4.8 ENE 22 30 12 16 1012.5 1012.4 0.0
02/11:00am 15.8 11.0 7.3 57 4.2 ENE 22 30 12 16 1013.1 1013.0 0.0
02/10:30am 15.3 10.4 8.5 64 3.5 ENE 24 30 13 16 1013.7 1013.7 0.0
02/10:00am 14.2 10.4 9.0 71 2.7 ENE 19 26 10 14 1014.3 1014.3 0.0
02/09:30am 12.4 7.8 6.5 67 2.8 ENE 20 26 11 14 1014.8 1014.8 0.0
02/09:00am 11.2 7.2 6.7 74 2.1 ENE 17 22 9 12 1015.1 1015.1 0.0
02/08:30am 9.1 4.5 5.7 79 1.6 ENE 19 26 10 14 1015.1 1015.1 0.0
02/08:00am 8.3 5.1 5.2 81 1.4 E 11 19 6 10 1015.3 1015.3 0.0
02/07:30am 7.9 4.3 5.0 82 1.3 E 13 19 7 10 1015.2 1015.2 0.0
02/07:00am 7.6 4.4 4.9 83 1.2 E 11 15 6 8 1015.2 1015.2 0.0
02/06:30am 7.3 4.8 4.8 84 1.1 E 7 15 4 8 1015.3 1015.3 0.0
02/06:00am 7.2 2.8 4.7 84 1.1 E 17 20 9 11 1014.8 1014.8 0.0
02/05:30am 6.8 2.7 4.6 86 1.0 E 15 19 8 10 1014.8 1014.8 0.0
02/05:00am 7.2 2.8 4.5 83 1.2 ENE 17 20 9 11 1014.6 1014.6 0.0
02/04:30am 6.7 2.2 4.4 85 1.0 ENE 17 20 9 11 1014.9 1014.9 0.0
02/04:00am 7.1 4.2 4.8 85 1.0 E 9 13 5 7 1015.2 1015.2 0.0
02/03:30am 6.4 3.5 4.6 88 0.8 ESE 9 11 5 6 1015.5 1015.5 0.0
02/03:00am 6.3 3.0 4.6 89 0.7 ENE 11 15 6 8 1015.8 1015.8 0.0
02/02:30am 6.2 3.2 4.2 87 0.9 ENE 9 13 5 7 1016.1 1016.1 0.0
02/02:00am 5.9 3.0 4.5 91 0.6 ENE 9 11 5 6 1016.4 1016.4 0.0
02/01:30am 5.4 3.0 4.2 92 0.5 ESE 6 7 3 4 1016.4 1016.4 0.0
02/01:00am 5.8 2.9 4.4 91 0.6 ESE 9 11 5 6 1016.6 1016.6 0.0
02/12:30am 6.3 4.8 4.8 90 0.7 ESE 2 9 1 5 1016.8 1016.8 0.0
02/12:00am 5.9 3.3 4.4 90 0.6 E 7 7 4 4 1016.8 1016.8 0.0
 
Date/Time
EST
Temp
°C
App
Temp
°C
Dew
Point
Rel
Hum
%
Delta-T
°C
Wind Press
QNH
hPa
Press
MSL
hPa
Rain
since 9 am
mm
Dir
 
Spd
km/h
Gust
km/h
Spd
kts
Gust
kts
01/11:30pm 6.1 3.6 4.6 90 0.7 ESE 7 9 4 5 1016.8 1016.8 0.0
01/11:00pm 6.3 3.8 4.8 90 0.7 ESE 7 9 4 5 1016.8 1016.8 0.0
01/10:30pm 6.6 4.2 5.1 90 0.7 ESE 7 9 4 5 1016.9 1016.9 0.0
01/10:00pm 6.7 4.2 5.0 89 0.7 ESE 7 9 4 5 1016.6 1016.6 0.0
01/09:30pm 7.3 5.2 5.6 89 0.8 SE 6 7 3 4 1016.6 1016.6 0.0
01/09:00pm 7.6 6.2 5.7 88 0.9 SE 2 7 1 4 1016.5 1016.5 0.0
01/08:30pm 7.9 6.6 6.0 88 0.9 SE 2 7 1 4 1016.3 1016.3 0.0

Other Formats:

Comma delimited format used in spreadsheet applications
http://www.bom.gov.au/fwo/IDN60801/IDN60801.95706.axf

JavaScript Object Notation format (JSON) in row-major order
http://www.bom.gov.au/fwo/IDN60801/IDN60801.95706.json